Time;durP1;ratioP1;P1;durP2;ratioP2;P2;SDS_P1;SDS_P2;PMS_P1;PMS_P2;Temp;Humidity;BMP_temperature;BMP_pressure;BME280_temperature;BME280_humidity;BME280_pressure;Samples;Min_cycle;Max_cycle;Signal;HPM_P1;HPM_P2
2022/07/05 00:00:47;;;;;;;4.32;2.30;;;20.90;99.90;;;;;;5050414;28;20649;-74
2022/07/05 00:03:13;;;;;;;3.72;2.00;;;20.90;99.90;;;;;;5050106;28;20282;-76
2022/07/05 00:05:39;;;;;;;3.20;1.83;;;20.90;99.90;;;;;;5049303;28;20637;-77
2022/07/05 00:08:05;;;;;;;1.90;1.70;;;20.80;99.90;;;;;;5049316;28;20295;-77
2022/07/05 00:10:32;;;;;;;2.88;1.95;;;20.80;99.90;;;;;;5049924;28;20261;-78
2022/07/05 00:12:58;;;;;;;3.35;1.80;;;20.80;99.90;;;;;;5049796;28;20215;-78
2022/07/05 00:15:23;;;;;;;1.85;1.63;;;20.70;99.90;;;;;;5047896;28;20183;-78
2022/07/05 00:17:49;;;;;;;4.63;1.55;;;20.70;99.90;;;;;;5050566;28;20285;-78
2022/07/05 00:20:15;;;;;;;2.97;1.73;;;20.70;99.90;;;;;;5032810;28;20754;-78
2022/07/05 00:22:41;;;;;;;3.47;1.58;;;20.60;99.90;;;;;;5050291;28;20728;-78
2022/07/05 00:25:07;;;;;;;3.13;1.52;;;20.60;99.90;;;;;;5050735;28;20207;-77
2022/07/05 00:27:33;;;;;;;3.92;2.83;;;20.50;99.90;;;;;;5050354;28;20221;-77
2022/07/05 00:29:58;;;;;;;2.80;2.30;;;20.60;99.90;;;;;;5050950;28;20262;-77
2022/07/05 00:32:24;;;;;;;3.05;2.20;;;20.60;99.90;;;;;;5032578;28;20290;-76
2022/07/05 00:34:50;;;;;;;3.22;2.70;;;20.50;99.90;;;;;;5064038;22;20236;-71
2022/07/05 00:37:15;;;;;;;2.00;1.48;;;20.50;99.90;;;;;;5049054;28;20219;-72
2022/07/05 00:39:41;;;;;;;2.42;1.58;;;20.50;99.90;;;;;;5032073;28;20680;-71
2022/07/05 00:42:06;;;;;;;3.75;1.92;;;20.50;99.90;;;;;;5051025;28;20237;-71
2022/07/05 00:44:35;;;;;;;1.98;1.38;;;20.50;99.90;;;;;;5033918;28;20208;-72
2022/07/05 00:47:02;;;;;;;2.33;1.45;;;20.50;99.90;;;;;;5052011;28;20231;-71
2022/07/05 00:49:28;;;;;;;5.13;1.42;;;20.50;99.90;;;;;;5053754;28;20294;-71
2022/07/05 00:51:54;;;;;;;2.40;1.40;;;20.40;99.90;;;;;;5036738;28;20361;-72
2022/07/05 00:54:20;;;;;;;2.20;1.60;;;20.40;99.90;;;;;;5054918;28;20289;-72
2022/07/05 00:56:45;;;;;;;2.22;1.48;;;20.40;99.90;;;;;;5054172;28;20199;-72
2022/07/05 00:59:11;;;;;;;4.28;2.00;;;20.30;99.90;;;;;;5053886;28;20756;-72
2022/07/05 01:01:37;;;;;;;1.50;1.33;;;20.30;99.90;;;;;;5053762;28;20294;-72
2022/07/05 01:04:02;;;;;;;2.70;1.58;;;20.30;99.90;;;;;;5053927;28;20215;-72
2022/07/05 01:06:28;;;;;;;1.90;1.50;;;20.30;99.90;;;;;;5054387;28;20176;-71
2022/07/05 01:08:53;;;;;;;3.28;1.55;;;20.20;99.90;;;;;;5053030;28;20215;-72
2022/07/05 01:11:19;;;;;;;2.13;1.40;;;20.20;99.90;;;;;;5053858;28;20219;-72
2022/07/05 01:13:45;;;;;;;1.98;1.35;;;20.10;99.90;;;;;;5053608;28;20215;-72
2022/07/05 01:16:13;;;;;;;2.83;1.75;;;20.10;99.90;;;;;;5051587;28;20219;-72
2022/07/05 01:18:38;;;;;;;2.35;1.40;;;20.10;99.90;;;;;;5053308;28;20233;-72
2022/07/05 01:21:05;;;;;;;2.78;1.48;;;20.00;99.90;;;;;;5036500;28;20183;-72
2022/07/05 01:23:31;;;;;;;3.25;2.05;;;19.90;99.90;;;;;;5035291;28;20212;-72
2022/07/05 01:25:59;;;;;;;2.63;2.00;;;19.80;99.90;;;;;;5035756;28;20235;-72
2022/07/05 01:28:25;;;;;;;2.38;1.60;;;19.70;99.90;;;;;;5035380;28;20207;-73
2022/07/05 01:30:51;;;;;;;2.47;1.70;;;19.80;99.90;;;;;;5053357;28;20656;-72
2022/07/05 01:33:16;;;;;;;1.73;1.60;;;19.70;99.90;;;;;;5053841;28;20656;-72
2022/07/05 01:35:42;;;;;;;1.77;1.50;;;19.60;99.90;;;;;;5053179;28;20250;-72
2022/07/05 01:38:11;;;;;;;2.38;1.60;;;19.60;99.90;;;;;;5053444;28;20300;-72
2022/07/05 01:40:36;;;;;;;3.90;1.73;;;19.50;99.90;;;;;;5053114;28;20218;-72
2022/07/05 01:43:03;;;;;;;2.97;1.42;;;19.40;99.90;;;;;;5053310;28;20215;-72
2022/07/05 01:45:44;;;;;;;2.08;1.88;;;19.30;99.90;;;;;;5051174;28;20205;-72
2022/07/05 01:48:15;;;;;;;2.97;1.70;;;19.20;99.90;;;;;;5053391;28;20684;-72
2022/07/05 01:50:51;;;;;;;2.30;1.58;;;19.30;99.90;;;;;;5053049;28;20314;-72
2022/07/05 01:53:22;;;;;;;2.70;1.65;;;19.30;99.90;;;;;;5053109;28;20842;-72
2022/07/05 01:55:48;;;;;;;3.03;1.75;;;19.30;99.90;;;;;;5052846;28;20223;-72
2022/07/05 01:58:14;;;;;;;4.93;1.60;;;19.30;99.90;;;;;;5052664;28;20204;-72
2022/07/05 02:00:48;;;;;;;2.42;1.55;;;19.30;99.90;;;;;;5034690;28;20528;-72
2022/07/05 02:03:15;;;;;;;2.42;1.60;;;19.10;99.90;;;;;;5053770;28;20196;-72
2022/07/05 02:05:41;;;;;;;2.38;1.70;;;19.10;99.90;;;;;;5052379;28;20231;-71
2022/07/05 02:08:07;;;;;;;1.95;1.55;;;19.10;99.90;;;;;;5034762;28;20586;-72
2022/07/05 02:10:37;;;;;;;2.72;1.60;;;18.80;99.90;;;;;;5052660;28;20203;-72
2022/07/05 02:13:04;;;;;;;2.65;1.77;;;18.90;99.90;;;;;;5052791;28;20712;-71
2022/07/05 02:15:34;;;;;;;4.15;1.80;;;18.80;99.90;;;;;;5049909;28;20207;-72
2022/07/05 02:18:01;;;;;;;4.57;2.00;;;18.90;99.90;;;;;;5053165;28;20176;-72
2022/07/05 02:20:27;;;;;;;2.65;1.65;;;18.80;99.90;;;;;;5055065;28;20208;-72
2022/07/05 02:22:52;;;;;;;2.00;1.80;;;18.80;99.90;;;;;;5072044;28;20207;-72
2022/07/05 02:25:18;;;;;;;4.38;1.58;;;18.80;99.90;;;;;;5053635;28;20234;-72
2022/07/05 02:27:44;;;;;;;4.50;1.67;;;18.80;99.90;;;;;;5052496;28;20175;-72
2022/07/05 02:30:10;;;;;;;4.20;1.88;;;18.80;99.90;;;;;;5052948;28;20535;-72
2022/07/05 02:32:36;;;;;;;2.35;1.67;;;18.70;99.90;;;;;;5052162;28;20212;-71
2022/07/05 02:35:03;;;;;;;1.75;1.42;;;18.60;99.90;;;;;;5046452;28;20712;-72
2022/07/05 02:37:29;;;;;;;2.25;1.58;;;18.60;99.90;;;;;;5041661;28;20208;-72
2022/07/05 02:39:54;;;;;;;2.03;1.75;;;18.50;99.90;;;;;;5034013;28;20207;-71
2022/07/05 02:42:20;;;;;;;4.07;1.70;;;18.40;99.90;;;;;;5052598;28;20811;-72
2022/07/05 02:44:46;;;;;;;2.58;1.65;;;18.50;99.90;;;;;;5043612;28;20242;-72
2022/07/05 02:47:11;;;;;;;2.22;1.45;;;18.50;99.90;;;;;;5052100;28;20672;-71
2022/07/05 02:49:37;;;;;;;1.77;1.58;;;18.50;99.90;;;;;;5051421;28;20203;-71
2022/07/05 02:52:03;;;;;;;2.50;1.60;;;18.40;99.90;;;;;;5052055;28;20290;-72
2022/07/05 02:54:28;;;;;;;2.97;1.80;;;18.40;99.90;;;;;;5052090;28;20195;-72
2022/07/05 02:56:54;;;;;;;2.13;1.60;;;18.30;99.90;;;;;;5051759;28;20214;-72
2022/07/05 02:59:19;;;;;;;3.40;1.65;;;18.40;99.90;;;;;;5051379;28;20214;-72
2022/07/05 03:01:45;;;;;;;9.35;2.70;;;18.40;99.90;;;;;;5051258;28;20208;-72
2022/07/05 03:04:10;;;;;;;5.03;3.40;;;18.40;99.90;;;;;;5051577;28;20223;-72
2022/07/05 03:06:37;;;;;;;3.83;2.25;;;18.40;99.90;;;;;;5049096;28;20569;-72
2022/07/05 03:09:03;;;;;;;2.85;2.40;;;18.40;99.90;;;;;;5045995;28;20675;-72
2022/07/05 03:11:29;;;;;;;3.08;1.85;;;18.60;99.90;;;;;;5051385;28;20212;-72
2022/07/05 03:13:56;;;;;;;1.80;1.30;;;18.30;99.90;;;;;;5051382;28;20214;-72
2022/07/05 03:16:23;;;;;;;1.95;1.50;;;18.30;99.90;;;;;;5051150;28;20272;-72
2022/07/05 03:18:49;;;;;;;2.75;1.92;;;18.50;99.90;;;;;;5051308;28;20542;-72
2022/07/05 03:21:14;;;;;;;2.35;1.60;;;18.50;99.90;;;;;;5051981;28;20176;-72
2022/07/05 03:23:40;;;;;;;1.80;1.67;;;18.50;99.90;;;;;;5051031;28;20839;-73
2022/07/05 03:26:06;;;;;;;2.67;1.70;;;18.60;99.90;;;;;;5051068;28;20211;-73
2022/07/05 03:28:32;;;;;;;2.00;1.75;;;18.60;99.90;;;;;;5050720;28;20210;-73
2022/07/05 03:30:57;;;;;;;5.80;1.58;;;19.20;99.90;;;;;;5033273;28;20206;-73
2022/07/05 03:33:23;;;;;;;4.15;1.52;;;20.50;99.90;;;;;;5051180;28;20180;-72
2022/07/05 03:35:48;;;;;;;1.80;1.48;;;21.50;99.90;;;;;;5032911;28;20751;-73
2022/07/05 03:38:14;;;;;;;2.45;1.60;;;22.60;99.90;;;;;;5043132;28;20203;-73
2022/07/05 03:40:40;;;;;;;2.25;1.60;;;23.60;99.90;;;;;;5050871;28;20211;-72
2022/07/05 03:43:05;;;;;;;2.65;1.77;;;24.30;99.90;;;;;;5032888;28;20649;-72
2022/07/05 03:45:31;;;;;;;1.75;1.30;;;24.40;99.90;;;;;;5050642;28;20213;-72
2022/07/05 03:48:00;;;;;;;4.80;1.42;;;23.90;99.90;;;;;;5051330;28;20182;-73
2022/07/05 03:50:27;;;;;;;2.53;1.80;;;24.70;99.90;;;;;;5050659;28;20210;-73
2022/07/05 03:52:52;;;;;;;3.15;1.58;;;25.10;99.90;;;;;;5050938;28;20242;-73
2022/07/05 03:55:18;;;;;;;3.95;1.83;;;25.70;99.90;;;;;;5050700;28;20589;-72
2022/07/05 03:57:44;;;;;;;2.42;1.60;;;25.20;99.90;;;;;;5050368;28;20171;-72
2022/07/05 04:00:10;;;;;;;2.35;1.38;;;25.70;99.90;;;;;;5051003;28;20179;-72
2022/07/05 04:02:35;;;;;;;1.55;1.20;;;26.10;99.90;;;;;;5032613;28;20216;-72
2022/07/05 04:05:01;;;;;;;2.72;1.35;;;27.00;99.90;;;;;;5032555;28;20218;-72
2022/07/05 04:07:27;;;;;;;3.10;1.30;;;27.60;99.90;;;;;;5042718;28;20342;-72
2022/07/05 04:09:53;;;;;;;3.10;1.63;;;27.50;99.90;;;;;;5050060;28;20262;-72
2022/07/05 04:12:18;;;;;;;1.63;1.40;;;27.70;99.90;;;;;;5051046;28;20263;-72
2022/07/05 04:14:44;;;;;;;2.55;1.50;;;27.80;99.90;;;;;;5032396;28;20235;-73
2022/07/05 04:17:09;;;;;;;5.93;1.85;;;27.80;99.90;;;;;;5050555;28;20211;-73
2022/07/05 04:19:35;;;;;;;4.25;1.98;;;28.10;99.90;;;;;;5052065;28;20563;-73
2022/07/05 04:22:00;;;;;;;4.30;1.42;;;28.50;99.90;;;;;;5054398;28;20212;-73
2022/07/05 04:24:26;;;;;;;2.28;1.50;;;29.00;99.90;;;;;;5054986;28;20205;-73
2022/07/05 04:26:52;;;;;;;2.50;1.35;;;29.50;99.90;;;;;;5054607;28;20210;-74
2022/07/05 04:29:17;;;;;;;5.45;1.92;;;29.80;99.90;;;;;;5054631;28;20199;-73
2022/07/05 04:31:43;;;;;;;5.65;1.55;;;29.90;99.90;;;;;;5054378;28;20881;-73
2022/07/05 04:34:09;;;;;;;2.60;1.38;;;29.90;99.90;;;;;;5054270;28;20222;-72
2022/07/05 04:36:36;;;;;;;2.40;1.58;;;30.60;99.90;;;;;;5035132;28;20211;-73
2022/07/05 04:39:01;;;;;;;2.92;1.27;;;31.10;99.90;;;;;;5030694;28;20285;-73
2022/07/05 04:41:27;;;;;;;2.15;1.15;;;31.00;98.90;;;;;;5054122;28;20203;-73
2022/07/05 04:43:52;;;;;;;3.20;1.60;;;30.90;98.60;;;;;;5048930;28;20303;-73
2022/07/05 04:46:18;;;;;;;3.35;1.67;;;31.80;97.90;;;;;;5050836;28;20200;-73
2022/07/05 04:48:44;;;;;;;3.63;1.58;;;32.20;96.50;;;;;;5036157;28;20267;-73
2022/07/05 04:51:09;;;;;;;3.08;1.50;;;31.80;96.30;;;;;;5055198;28;20221;-73
2022/07/05 04:53:35;;;;;;;2.40;1.33;;;31.70;95.80;;;;;;5054258;28;20639;-73
2022/07/05 04:56:01;;;;;;;1.70;1.33;;;31.70;96.00;;;;;;5054273;28;20909;-73
2022/07/05 04:58:26;;;;;;;2.25;1.15;;;31.40;95.90;;;;;;5053807;28;20217;-73
2022/07/05 05:00:52;;;;;;;3.00;1.60;;;31.60;95.40;;;;;;5054328;28;20211;-73
2022/07/05 05:03:19;;;;;;;3.47;1.20;;;31.40;95.70;;;;;;5054445;28;20203;-73
2022/07/05 05:05:44;;;;;;;2.58;2.38;;;32.40;94.60;;;;;;5053951;28;20199;-73
2022/07/05 05:08:10;;;;;;;1.45;1.25;;;32.60;93.80;;;;;;5053496;28;20210;-71
2022/07/05 05:10:35;;;;;;;2.22;1.20;;;32.20;93.60;;;;;;5053627;28;20231;-73
2022/07/05 05:13:01;;;;;;;3.42;1.23;;;32.40;93.50;;;;;;5053705;28;20202;-73
2022/07/05 05:15:27;;;;;;;2.53;1.38;;;32.10;93.00;;;;;;5046198;28;20199;-74
2022/07/05 05:17:52;;;;;;;3.95;1.50;;;32.00;92.70;;;;;;5053837;28;20248;-74
2022/07/05 05:20:19;;;;;;;1.70;1.20;;;32.50;91.60;;;;;;5053626;28;20203;-74
2022/07/05 05:22:45;;;;;;;2.65;1.27;;;32.80;91.30;;;;;;5053473;28;20214;-73
2022/07/05 05:25:12;;;;;;;2.30;1.10;;;32.20;90.80;;;;;;5035361;28;20219;-74
2022/07/05 05:27:46;;;;;;;1.90;1.17;;;32.80;90.80;;;;;;5035468;28;20198;-74
2022/07/05 05:30:12;;;;;;;2.35;1.17;;;33.20;90.00;;;;;;5054031;28;20179;-73
2022/07/05 05:32:38;;;;;;;2.45;1.30;;;34.20;87.10;;;;;;5053982;28;20199;-73
2022/07/05 05:35:04;;;;;;;1.35;1.20;;;33.40;86.00;;;;;;5053213;28;20593;-73
2022/07/05 05:37:30;;;;;;;2.10;1.17;;;33.50;85.60;;;;;;5053234;28;20214;-73
2022/07/05 05:39:55;;;;;;;2.28;1.15;;;32.60;85.70;;;;;;5053027;28;20218;-73
2022/07/05 05:42:21;;;;;;;2.63;1.27;;;33.10;86.10;;;;;;5053427;28;20285;-74
2022/07/05 05:44:47;;;;;;;1.65;1.23;;;33.00;86.10;;;;;;5045644;28;20222;-74
2022/07/05 05:47:12;;;;;;;2.17;1.20;;;33.50;83.70;;;;;;5052765;28;20199;-74
2022/07/05 05:49:38;;;;;;;1.00;0.90;;;33.20;83.20;;;;;;5052583;28;20214;-73
2022/07/05 05:52:04;;;;;;;3.33;1.33;;;32.70;84.30;;;;;;5053056;28;20620;-74
2022/07/05 05:54:29;;;;;;;3.13;1.30;;;32.60;83.30;;;;;;5052726;28;20195;-74
2022/07/05 05:56:55;;;;;;;3.28;1.30;;;32.80;82.60;;;;;;5053784;28;20258;-73
2022/07/05 05:59:20;;;;;;;2.50;1.30;;;33.10;82.30;;;;;;5053622;28;20234;-73
2022/07/05 06:01:46;;;;;;;1.75;1.40;;;33.80;79.50;;;;;;5052942;28;20203;-73
2022/07/05 06:04:11;;;;;;;2.53;1.77;;;33.60;77.40;;;;;;5052597;28;20222;-72
2022/07/05 06:06:37;;;;;;;3.45;1.75;;;32.80;78.00;;;;;;5034742;28;20244;-73
2022/07/05 06:09:03;;;;;;;1.98;1.50;;;33.10;77.70;;;;;;5053137;28;20213;-73
2022/07/05 06:11:30;;;;;;;2.42;1.63;;;33.70;77.60;;;;;;5052521;28;20207;-73
2022/07/05 06:13:55;;;;;;;3.05;1.95;;;34.20;75.60;;;;;;5048327;28;20705;-74
2022/07/05 06:16:21;;;;;;;2.40;1.58;;;34.20;75.20;;;;;;5049165;28;20215;-74
2022/07/05 06:18:46;;;;;;;2.10;1.65;;;33.90;74.70;;;;;;5052391;28;20217;-73
2022/07/05 06:21:12;;;;;;;2.08;1.33;;;34.50;74.70;;;;;;5038467;28;20284;-73
2022/07/05 06:23:37;;;;;;;2.65;1.30;;;34.90;73.60;;;;;;5048715;28;20731;-73
2022/07/05 06:26:03;;;;;;;3.33;1.30;;;35.20;72.70;;;;;;5052779;28;20215;-74
2022/07/05 06:28:29;;;;;;;2.28;1.25;;;36.20;72.20;;;;;;5070316;28;20274;-74
2022/07/05 06:30:54;;;;;;;1.67;1.55;;;35.70;71.30;;;;;;5058669;28;20310;-73
2022/07/05 06:33:20;;;;;;;5.47;1.60;;;36.10;71.10;;;;;;5052728;28;20175;-73
2022/07/05 06:35:46;;;;;;;1.80;1.20;;;35.50;71.10;;;;;;5072320;22;20219;-78
2022/07/05 06:38:11;;;;;;;2.28;1.25;;;34.50;72.20;;;;;;5051171;28;20237;-77
2022/07/05 06:40:39;;;;;;;2.42;1.80;;;35.10;72.20;;;;;;5051789;28;20309;-76
2022/07/05 06:43:06;;;;;;;4.43;1.50;;;35.80;71.70;;;;;;5050774;28;20219;-79
2022/07/05 06:45:32;;;;;;;2.63;1.67;;;36.50;70.60;;;;;;5044911;28;20199;-76
2022/07/05 06:48:00;;;;;;;4.40;1.88;;;36.60;69.90;;;;;;5072448;28;20194;-75
2022/07/05 06:50:26;;;;;;;2.40;2.03;;;36.40;69.40;;;;;;5071721;28;20686;-77
2022/07/05 06:52:53;;;;;;;3.97;2.00;;;36.30;69.50;;;;;;5053926;28;20210;-77
2022/07/05 06:55:19;;;;;;;2.17;1.80;;;36.20;69.60;;;;;;5071579;28;20230;-77
2022/07/05 06:57:45;;;;;;;3.30;1.70;;;36.20;69.70;;;;;;5053617;28;20247;-77
2022/07/05 07:00:11;;;;;;;4.47;1.60;;;36.20;69.40;;;;;;5072091;28;20202;-77
2022/07/05 07:02:37;;;;;;;2.88;1.25;;;36.60;68.00;;;;;;5055533;28;20236;-78
2022/07/05 07:05:03;;;;;;;3.20;1.52;;;36.60;68.20;;;;;;5071608;28;20718;-76
2022/07/05 07:10:18;;;;;;;2.28;1.40;;;35.70;68.50;;;;;;5071563;28;20212;-75
2022/07/05 07:12:43;;;;;;;2.17;1.58;;;35.80;68.20;;;;;;5053523;28;20170;-75
2022/07/05 07:15:10;;;;;;;2.25;1.30;;;36.10;68.30;;;;;;5071479;28;20198;-76
2022/07/05 07:17:36;;;;;;;2.95;1.30;;;36.40;67.90;;;;;;5071261;28;20734;-76
2022/07/05 07:20:02;;;;;;;2.08;1.33;;;37.10;67.20;;;;;;5070950;28;20237;-76
2022/07/05 07:22:28;;;;;;;1.60;1.42;;;37.60;65.80;;;;;;5061401;28;20214;-74
2022/07/05 07:24:54;;;;;;;2.45;1.50;;;37.10;65.20;;;;;;5051490;28;20256;-75
2022/07/05 07:27:19;;;;;;;4.30;1.33;;;37.10;65.10;;;;;;5072633;28;20186;-78
2022/07/05 07:29:45;;;;;;;3.67;1.50;;;37.40;65.20;;;;;;5052943;28;20198;-78
2022/07/05 07:32:11;;;;;;;2.47;1.35;;;37.10;65.40;;;;;;5070677;28;20233;-79
2022/07/05 07:34:37;;;;;;;4.63;1.30;;;36.70;64.70;;;;;;5070548;28;20711;-78
2022/07/05 07:37:03;;;;;;;2.38;1.67;;;36.80;65.70;;;;;;5052926;28;20775;-74
2022/07/05 07:39:31;;;;;;;5.07;1.70;;;37.20;65.00;;;;;;5052494;28;20655;-76
2022/07/05 07:41:57;;;;;;;3.33;1.40;;;37.60;64.30;;;;;;5053380;28;20224;-75
2022/07/05 07:44:23;;;;;;;1.88;1.40;;;36.90;63.90;;;;;;5070343;28;20214;-75
2022/07/05 07:46:49;;;;;;;3.13;2.05;;;38.10;63.80;;;;;;5071054;28;20687;-76
2022/07/05 07:49:14;;;;;;;3.35;2.67;;;37.80;62.90;;;;;;5070913;28;20275;-75
2022/07/05 07:51:40;;;;;;;1.58;1.40;;;37.70;63.40;;;;;;5073272;28;20174;-75
2022/07/05 07:54:06;;;;;;;5.20;2.67;;;38.00;62.60;;;;;;5082885;28;20560;-75
2022/07/05 07:56:32;;;;;;;3.45;1.63;;;37.70;62.90;;;;;;5072475;28;20259;-74
2022/07/05 07:58:58;;;;;;;2.75;1.38;;;36.60;62.80;;;;;;5070283;28;20612;-73
2022/07/05 08:01:24;;;;;;;4.38;2.58;;;36.00;64.00;;;;;;5051632;28;20205;-76
2022/07/05 08:03:50;;;;;;;1.85;1.40;;;36.30;64.50;;;;;;5071239;28;20222;-76
2022/07/05 08:06:16;;;;;;;4.47;2.40;;;36.70;63.70;;;;;;5071408;28;20203;-75
2022/07/05 08:08:44;;;;;;;4.93;3.05;;;37.00;63.20;;;;;;5070009;28;20206;-71
2022/07/05 08:11:11;;;;;;;2.40;2.00;;;36.50;64.10;;;;;;5052710;28;20605;-74
2022/07/05 08:13:39;;;;;;;3.67;1.60;;;36.60;65.10;;;;;;5070252;28;20702;-74
2022/07/05 08:16:04;;;;;;;3.97;1.60;;;36.80;63.50;;;;;;5070773;28;20762;-73
2022/07/05 08:21:34;;;;;;;2.20;1.40;;;36.50;64.80;;;;;;5071563;28;20670;-74
2022/07/05 08:24:02;;;;;;;4.28;2.40;;;36.50;64.40;;;;;;5055499;28;20233;-74
2022/07/05 08:26:30;;;;;;;8.60;5.45;;;36.50;64.50;;;;;;5070760;28;20213;-74
2022/07/05 08:28:58;;;;;;;2.78;1.48;;;37.60;63.40;;;;;;5070037;28;20198;-77
2022/07/05 08:31:24;;;;;;;3.42;2.75;;;37.50;62.50;;;;;;5070694;28;20218;-73
2022/07/05 08:33:51;;;;;;;4.43;1.65;;;37.70;62.50;;;;;;5070408;28;20698;-73
2022/07/05 08:36:17;;;;;;;3.33;1.60;;;38.00;62.50;;;;;;5079607;28;20206;-76
2022/07/05 08:38:42;;;;;;;2.13;1.50;;;38.00;62.10;;;;;;5069898;28;20198;-74
2022/07/05 08:41:10;;;;;;;2.03;1.50;;;36.40;62.50;;;;;;5070422;28;20206;-74
2022/07/05 08:43:40;;;;;;;2.38;1.50;;;36.60;63.60;;;;;;5070043;28;20272;-77
2022/07/05 08:46:08;;;;;;;3.63;2.80;;;36.90;62.80;;;;;;5070252;28;20214;-74
2022/07/05 08:48:41;;;;;;;2.00;1.80;;;35.60;63.40;;;;;;5051862;28;20178;-74
2022/07/05 08:51:12;;;;;;;2.15;1.63;;;36.20;64.30;;;;;;5074976;28;20178;-76
2022/07/05 08:53:39;;;;;;;3.25;1.60;;;36.40;64.40;;;;;;5051013;28;20222;-76
2022/07/05 08:56:10;;;;;;;2.00;1.30;;;35.80;63.70;;;;;;5077323;28;20224;-76
2022/07/05 08:58:36;;;;;;;3.28;1.40;;;35.20;64.90;;;;;;5050849;28;20202;-76
2022/07/05 09:01:02;;;;;;;3.03;1.20;;;35.40;65.20;;;;;;5057480;28;20232;-76
2022/07/05 09:03:33;;;;;;;3.90;1.52;;;35.90;64.90;;;;;;5069990;28;20210;-76
2022/07/05 09:06:01;;;;;;;3.53;2.30;;;35.90;64.60;;;;;;5054337;28;20450;-76
2022/07/05 09:08:30;;;;;;;2.33;1.80;;;35.60;64.90;;;;;;5074768;28;20222;-76
2022/07/05 09:10:55;;;;;;;3.65;1.90;;;35.70;64.90;;;;;;5074109;28;20216;-76
2022/07/05 09:13:21;;;;;;;3.55;1.70;;;35.50;65.90;;;;;;5073847;28;20206;-76
2022/07/05 09:15:47;;;;;;;3.90;1.80;;;35.40;65.80;;;;;;5073669;28;20198;-76
2022/07/05 09:18:12;;;;;;;2.28;1.30;;;35.20;65.60;;;;;;5073955;28;20220;-76
2022/07/05 09:20:38;;;;;;;4.60;1.50;;;34.40;66.10;;;;;;5073551;28;20217;-76
2022/07/05 09:23:03;;;;;;;4.60;2.05;;;34.10;67.40;;;;;;5073527;28;20767;-76
2022/07/05 09:25:31;;;;;;;3.22;1.63;;;34.10;68.30;;;;;;5074589;28;20656;-76
2022/07/05 09:27:57;;;;;;;3.75;1.40;;;34.10;67.50;;;;;;5073749;28;20214;-75
2022/07/05 09:30:38;;;;;;;5.03;1.48;;;34.20;68.00;;;;;;5057071;28;20175;-76
2022/07/05 09:33:09;;;;;;;4.93;2.00;;;33.70;69.60;;;;;;5059829;28;20343;-76
2022/07/05 09:35:36;;;;;;;2.83;1.30;;;33.50;69.10;;;;;;5073464;28;20235;-75
2022/07/05 09:38:03;;;;;;;3.95;1.27;;;33.40;69.80;;;;;;5060201;28;20218;-78
2022/07/05 09:40:33;;;;;;;1.50;1.10;;;32.80;70.00;;;;;;5069549;28;20221;-77
2022/07/05 09:43:16;;;;;;;3.50;1.42;;;32.60;70.40;;;;;;5062405;28;20760;-77
2022/07/05 09:46:04;;;;;;;3.63;1.13;;;32.70;71.00;;;;;;5078631;28;20278;-76
2022/07/05 09:48:34;;;;;;;2.10;1.45;;;32.30;71.60;;;;;;5073191;28;20198;-78
2022/07/05 09:51:06;;;;;;;2.83;1.80;;;32.00;72.10;;;;;;5073913;28;20186;-78
2022/07/05 09:53:49;;;;;;;3.50;2.33;;;31.00;74.30;;;;;;5072819;28;20203;-78
2022/07/05 09:56:15;;;;;;;3.85;2.42;;;31.20;75.00;;;;;;5054800;28;20211;-77
2022/07/05 09:58:41;;;;;;;3.85;1.50;;;31.00;74.80;;;;;;5072314;28;20586;-79
2022/07/05 10:01:26;;;;;;;3.92;1.63;;;31.10;75.30;;;;;;5074175;28;20390;-79
2022/07/05 10:03:57;;;;;;;5.60;2.95;;;30.70;75.50;;;;;;5055263;28;20219;-76
2022/07/05 10:06:25;;;;;;;1.52;1.13;;;30.40;76.70;;;;;;5073255;28;20199;-77
2022/07/05 10:08:52;;;;;;;3.03;1.33;;;30.70;76.90;;;;;;5054513;28;20631;-77
2022/07/05 10:11:18;;;;;;;4.60;1.33;;;30.70;77.00;;;;;;5072791;28;20237;-77
2022/07/05 10:13:51;;;;;;;6.55;1.88;;;31.10;76.80;;;;;;5072584;28;20420;-76
2022/07/05 10:16:17;;;;;;;3.75;1.55;;;30.30;76.90;;;;;;5072782;28;20211;-75
2022/07/05 10:18:48;;;;;;;5.72;1.80;;;29.70;76.90;;;;;;5054259;28;20179;-74
2022/07/05 10:21:15;;;;;;;3.30;1.50;;;30.10;77.60;;;;;;5054763;28;20262;-75
2022/07/05 10:23:53;;;;;;;4.43;1.58;;;29.80;77.30;;;;;;5072067;28;20214;-76
2022/07/05 10:26:19;;;;;;;4.47;1.77;;;30.20;77.40;;;;;;5072225;28;20207;-77
2022/07/05 10:28:47;;;;;;;4.18;1.52;;;29.50;78.60;;;;;;5073337;28;20222;-81
2022/07/05 10:31:14;;;;;;;2.72;1.58;;;29.80;79.20;;;;;;5039561;28;20206;-77
2022/07/05 10:33:41;;;;;;;3.83;1.70;;;30.30;78.80;;;;;;5073420;28;20186;-74
2022/07/05 10:36:10;;;;;;;1.33;1.23;;;30.30;77.10;;;;;;5073357;28;20699;-78
2022/07/05 10:38:39;;;;;;;2.40;1.45;;;30.20;76.60;;;;;;5072167;28;20621;-78
2022/07/05 10:41:07;;;;;;;13.52;9.55;;;30.60;75.60;;;;;;5072086;28;20240;-77
2022/07/05 10:43:32;;;;;;;3.47;2.08;;;30.80;75.70;;;;;;5053833;28;20214;-75
2022/07/05 10:45:59;;;;;;;3.70;1.73;;;30.70;75.30;;;;;;5071774;28;20783;-77
2022/07/05 10:48:26;;;;;;;3.35;1.80;;;30.40;76.00;;;;;;5072255;28;20186;-74
2022/07/05 10:50:55;;;;;;;3.40;1.83;;;30.20;76.50;;;;;;5071771;28;20581;-78
2022/07/05 10:53:55;;;;;;;1.63;1.30;;;29.90;76.70;;;;;;5053951;28;20206;-77
2022/07/05 10:56:21;;;;;;;4.38;1.70;;;29.50;77.70;;;;;;5074585;28;20207;-74
2022/07/05 10:58:48;;;;;;;3.80;1.63;;;29.10;78.20;;;;;;5071413;28;20272;-76
2022/07/05 11:01:19;;;;;;;3.20;1.20;;;29.10;78.70;;;;;;5053575;28;20731;-74
2022/07/05 11:03:52;;;;;;;4.63;1.58;;;28.90;79.20;;;;;;5053263;28;20227;-77
2022/07/05 11:06:22;;;;;;;1.92;1.40;;;28.30;80.10;;;;;;5071747;28;20699;-77
2022/07/05 11:08:59;;;;;;;1.40;1.30;;;28.50;80.50;;;;;;5072186;28;20217;-74
2022/07/05 11:11:33;;;;;;;4.80;1.88;;;28.30;81.10;;;;;;5061505;28;20211;-71
2022/07/05 11:14:04;;;;;;;9.50;7.32;;;27.90;82.30;;;;;;5071281;28;20213;-73
2022/07/05 11:16:36;;;;;;;10.05;5.72;;;27.90;82.80;;;;;;5071101;28;20742;-75
2022/07/05 11:19:12;;;;;;;4.10;2.58;;;28.00;82.80;;;;;;5071056;28;20206;-74
2022/07/05 11:21:40;;;;;;;5.47;2.15;;;28.00;82.40;;;;;;5053101;28;20184;-76
2022/07/05 11:24:21;;;;;;;1.77;1.55;;;28.40;82.10;;;;;;5071497;28;20198;-78
2022/07/05 11:26:48;;;;;;;3.10;1.52;;;28.00;82.10;;;;;;5071885;28;20198;-75
2022/07/05 11:29:42;;;;;;;4.25;1.90;;;28.50;82.70;;;;;;5070858;28;20206;-74
2022/07/05 11:32:14;;;;;;;2.15;1.48;;;29.10;82.50;;;;;;5058437;28;20695;-75
2022/07/05 11:34:42;;;;;;;3.47;1.52;;;29.30;81.30;;;;;;5072083;28;20253;-77
2022/07/05 11:37:13;;;;;;;3.05;1.50;;;29.10;81.60;;;;;;5053111;28;20207;-75
2022/07/05 11:39:42;;;;;;;3.60;1.75;;;29.40;80.40;;;;;;5070616;28;20174;-75
2022/07/05 11:42:09;;;;;;;5.65;1.50;;;29.70;79.60;;;;;;5071327;28;20175;-75
2022/07/05 11:44:36;;;;;;;6.57;1.60;;;29.50;78.80;;;;;;5070715;28;20215;-76
2022/07/05 11:47:02;;;;;;;3.83;1.90;;;29.30;79.00;;;;;;5071070;28;20230;-75
2022/07/05 11:49:28;;;;;;;4.20;1.40;;;29.50;79.50;;;;;;5071385;28;20207;-73
2022/07/05 11:51:58;;;;;;;5.10;1.58;;;29.40;79.20;;;;;;5071057;28;20783;-76
2022/07/05 11:54:25;;;;;;;3.50;1.27;;;29.30;78.80;;;;;;5052997;28;20266;-76
2022/07/05 11:56:51;;;;;;;3.63;1.42;;;28.90;79.00;;;;;;5052896;28;20230;-76
2022/07/05 11:59:21;;;;;;;2.53;1.33;;;28.20;80.40;;;;;;5070353;28;20291;-78
2022/07/05 12:01:47;;;;;;;2.92;1.45;;;28.00;81.00;;;;;;5070654;28;20214;-77
2022/07/05 12:04:28;;;;;;;3.40;1.38;;;28.20;81.90;;;;;;5071325;28;20298;-76
2022/07/05 12:06:55;;;;;;;2.47;1.70;;;28.40;81.90;;;;;;5071287;28;20211;-76
2022/07/05 12:09:27;;;;;;;2.05;1.40;;;27.80;81.00;;;;;;5070650;28;20187;-75
2022/07/05 12:14:50;;;;;;;2.70;1.40;;;28.20;80.00;;;;;;5070227;28;20222;-75
2022/07/05 12:17:18;;;;;;;3.20;1.08;;;28.50;80.40;;;;;;5070355;28;20682;-71
2022/07/05 12:19:45;;;;;;;5.70;1.38;;;28.90;80.00;;;;;;5069953;28;20680;-72
2022/07/05 12:22:12;;;;;;;3.15;1.60;;;29.10;78.70;;;;;;5051282;28;20206;-75
2022/07/05 12:24:38;;;;;;;5.47;2.40;;;29.00;79.30;;;;;;5068511;28;20203;-75
2022/07/05 12:27:05;;;;;;;2.40;1.40;;;28.90;79.40;;;;;;5069970;28;20171;-73
2022/07/05 12:29:30;;;;;;;4.00;1.33;;;28.60;79.50;;;;;;5070051;28;20211;-75
2022/07/05 12:32:04;;;;;;;4.38;1.55;;;28.40;79.50;;;;;;5070106;28;20303;-74
2022/07/05 12:34:30;;;;;;;4.30;1.48;;;28.30;79.30;;;;;;5092406;23;20206;-71
2022/07/05 12:36:57;;;;;;;2.53;1.20;;;27.90;79.90;;;;;;4987693;28;20213;-69
2022/07/05 12:39:23;;;;;;;2.60;1.45;;;28.10;81.00;;;;;;4990840;28;20204;-70
2022/07/05 12:41:49;;;;;;;7.90;1.73;;;28.30;80.20;;;;;;4993470;28;20239;-71
2022/07/05 12:44:19;;;;;;;3.22;1.70;;;28.00;80.50;;;;;;4978894;28;20238;-76
2022/07/05 12:46:46;;;;;;;2.70;1.60;;;27.90;81.30;;;;;;4999816;28;20584;-74
2022/07/05 12:49:12;;;;;;;4.55;1.40;;;27.70;80.50;;;;;;4996527;28;20220;-71
2022/07/05 12:51:39;;;;;;;3.08;1.45;;;27.90;82.10;;;;;;4994810;28;20185;-70
2022/07/05 12:59:58;;;;;;;2.00;0.93;;;28.00;81.20;;;;;;4993232;28;20228;-70
2022/07/05 13:02:38;;;;;;;3.85;1.33;;;27.80;81.60;;;;;;4992341;28;20216;-72